| Date | Time | Temp. (oF) | Dew Point (oF) | Rel. Hum. (%) | Press. (in.) | Wind Dir. | Wind Speed (mph) | Hourly Rainfall (in.) |
|
|---|---|---|---|---|---|---|---|---|---|
| 1 | 10/17 | 00:00 | 46 | 33 | 62 | 30.23 | NW | 5 | 0.00 |
| 2 | 10/16 | 23:00 | 48 | 33 | 57 | 30.22 | NNW | 3 | 0.00 |
| 3 | 10/16 | 22:00 | 48 | 34 | 59 | 30.19 | NNW | 4 | 0.00 |
| 4 | 10/16 | 21:00 | 49 | 36 | 63 | 30.16 | NNW | 2 | 0.00 |
| 5 | 10/16 | 20:00 | 51 | 38 | 63 | 30.14 | W | 2 | 0.00 |
| 6 | 10/16 | 19:00 | 54 | 36 | 52 | 30.11 | NW | 3 | 0.00 |
| 7 | 10/16 | 18:00 | 58 | 36 | 44 | 30.08 | NNW | 9 | 0.00 |
| 8 | 10/16 | 17:00 | 60 | 36 | 41 | 30.07 | NW | 11 | 0.00 |
| 9 | 10/16 | 16:00 | 59 | 36 | 44 | 30.06 | NW | 6 | 0.00 |
| 10 | 10/16 | 15:00 | 60 | 37 | 43 | 30.07 | NNW | 10 | 0.00 |
| 11 | 10/16 | 14:00 | 56 | 39 | 54 | 30.07 | NNW | 7 | 0.00 |
| 12 | 10/16 | 13:00 | 54 | 42 | 64 | 30.08 | N | 12 | 0.00 |
| 13 | 10/16 | 12:00 | 55 | 41 | 60 | 30.07 | NW | 10 | 0.00 |
| 14 | 10/16 | 11:00 | 55 | 43 | 64 | 30.07 | WNW | 7 | 0.00 |
| 15 | 10/16 | 10:00 | 55 | 43 | 65 | 30.04 | NW | 8 | 0.01 |
| 16 | 10/16 | 09:00 | 55 | 44 | 69 | 30.03 | W | 12 | 0.00 |
| 17 | 10/16 | 08:00 | 57 | 48 | 72 | 30.00 | WNW | 6 | 0.00 |
| 18 | 10/16 | 07:00 | 58 | 52 | 82 | 29.95 | NW | 5 | 0.00 |
| 19 | 10/16 | 06:00 | 59 | 52 | 80 | 29.95 | NW | 4 | 0.00 |
| 20 | 10/16 | 05:00 | 59 | 53 | 83 | 29.92 | W | 7 | 0.00 |
| 21 | 10/16 | 04:00 | 59 | 55 | 89 | 29.90 | WNW | 7 | 0.01 |
| 22 | 10/16 | 03:00 | 59 | 56 | 93 | 29.91 | W | 3 | 0.02 |
| 23 | 10/16 | 02:00 | 61 | 58 | 91 | 29.91 | W | 4 | 0.01 |
| 24 | 10/16 | 01:00 | 64 | 63 | 99 | 29.88 | NNW | 5 | 0.10 |